createdAt,value
2019-05-18T00:00:29.038Z,59911.20
2019-05-18T00:05:25.064Z,59894.69
2019-05-18T00:10:20.988Z,59905.39
2019-05-18T00:15:16.913Z,59874.88
2019-05-18T00:20:15.036Z,59846.17
2019-05-18T00:25:15.524Z,59883.65
2019-05-18T00:30:14.342Z,59807.74
2019-05-18T00:35:12.162Z,59806.32
2019-05-18T00:40:08.609Z,59798.49
2019-05-18T00:45:05.746Z,59748.34
2019-05-18T00:50:26.082Z,59736.50
2019-05-18T00:55:22.114Z,59774.66
2019-05-18T01:00:18.145Z,59782.12
2019-05-18T01:05:14.216Z,59755.23
2019-05-18T01:10:10.602Z,59750.71
2019-05-18T01:15:07.281Z,59694.58
2019-05-18T01:20:13.836Z,59659.89
2019-05-18T01:25:09.940Z,59627.95
2019-05-18T01:30:06.979Z,59686.89
2019-05-18T01:35:04.793Z,59635.63
2019-05-18T01:40:00.862Z,59615.41
2019-05-18T01:44:56.804Z,59630.68
2019-05-18T01:49:56.940Z,59714.96
2019-05-18T01:54:52.971Z,59719.91
2019-05-18T01:59:48.898Z,59612.67
2019-05-18T02:04:44.792Z,59675.16
2019-05-18T02:09:40.724Z,59686.54
2019-05-18T02:14:36.635Z,59683.93
2019-05-18T02:19:33.954Z,59684.63
2019-05-18T02:24:29.990Z,59687.47
2019-05-18T02:29:25.926Z,59679.91
2019-05-18T02:34:21.883Z,59686.06
2019-05-18T02:39:17.812Z,59663.32
2019-05-18T02:44:13.763Z,59613.04
2019-05-18T02:49:09.688Z,59664.52
2019-05-18T02:54:05.718Z,59632.68
2019-05-18T02:59:01.649Z,59691.15
2019-05-18T03:03:57.658Z,59625.94
2019-05-18T03:08:53.586Z,59541.49
2019-05-18T03:13:49.613Z,59630.66
2019-05-18T03:18:45.650Z,59625.46
2019-05-18T03:23:41.623Z,59677.29
2019-05-18T03:28:37.549Z,59656.46
2019-05-18T03:33:33.474Z,59676.36
2019-05-18T03:38:29.405Z,59667.60
2019-05-18T03:43:25.441Z,59659.18
2019-05-18T03:48:21.584Z,59625.22
2019-05-18T03:53:18.398Z,59663.93
2019-05-18T03:58:14.862Z,59634.70
2019-05-18T04:03:10.854Z,59618.13
2019-05-18T04:08:06.791Z,59645.11
2019-05-18T04:13:02.718Z,59643.92
2019-05-18T04:17:58.711Z,59644.87
2019-05-18T04:22:54.718Z,59630.08
2019-05-18T04:27:50.649Z,59696.36
2019-05-18T04:32:46.573Z,59662.98
2019-05-18T04:37:42.508Z,59662.98
2019-05-18T04:42:38.478Z,59664.98
2019-05-18T04:47:34.414Z,59678.96
2019-05-18T04:52:30.347Z,59771.93
2019-05-18T04:57:26.270Z,59695.75
2019-05-18T05:02:22.697Z,59720.03
2019-05-18T05:07:18.630Z,59705.00
2019-05-18T05:12:14.556Z,59801.44
2019-05-18T05:17:10.454Z,59752.50
2019-05-18T05:22:06.407Z,59743.61
2019-05-18T05:27:02.337Z,59777.51
2019-05-18T05:31:58.270Z,59823.05
2019-05-18T05:36:54.306Z,59886.28
2019-05-18T05:41:50.241Z,59962.60
2019-05-18T05:46:46.178Z,60047.96
2019-05-18T05:51:42.105Z,60125.28
2019-05-18T05:56:38.033Z,60205.77
2019-05-18T06:01:34.004Z,60275.73
2019-05-18T06:06:29.934Z,60353.61
2019-05-18T06:11:25.856Z,60430.98
2019-05-18T06:16:21.789Z,60397.92
2019-05-18T06:21:17.708Z,60392.67
2019-05-18T06:26:13.646Z,60439.47
2019-05-18T06:31:09.576Z,60422.52
2019-05-18T06:36:05.513Z,60358.76
2019-05-18T06:41:02.237Z,60424.18
2019-05-18T06:45:58.167Z,60477.33
2019-05-18T06:51:06.301Z,60608.53
2019-05-18T06:55:52.645Z,60684.22
2019-05-18T07:00:48.578Z,60863.66
2019-05-18T07:05:45.258Z,60868.32
2019-05-18T07:10:41.569Z,61003.35
2019-05-18T07:15:37.494Z,61073.59
2019-05-18T07:20:33.774Z,61098.16
2019-05-18T07:25:30.402Z,61200.55
2019-05-18T07:30:26.428Z,61235.25
2019-05-18T07:35:22.348Z,61237.56
2019-05-18T07:40:18.378Z,61254.33
2019-05-18T07:45:14.623Z,61241.91
2019-05-18T07:50:16.350Z,61318.66
2019-05-18T07:55:12.942Z,61415.48
2019-05-18T08:00:09.400Z,61515.54
2019-05-18T08:05:07.007Z,61547.11
2019-05-18T08:10:05.043Z,61533.63
2019-05-18T08:15:00.968Z,61704.74
2019-05-18T08:20:01.188Z,61752.74
2019-05-18T08:24:57.207Z,61668.95
2019-05-18T08:29:53.137Z,61351.79
2019-05-18T08:34:49.061Z,61401.73
2019-05-18T08:39:44.993Z,61413.97
2019-05-18T08:44:40.930Z,61442.97
2019-05-18T08:49:36.834Z,61212.59
2019-05-18T08:54:32.769Z,61534.52
2019-05-18T08:59:28.705Z,61566.59
2019-05-18T09:04:24.639Z,61820.42
2019-05-18T09:09:20.568Z,61326.82
2019-05-18T09:14:16.503Z,61845.56
2019-05-18T09:19:12.532Z,62003.50
2019-05-18T09:24:08.465Z,61983.23
2019-05-18T09:29:04.617Z,61463.60
2019-05-18T09:34:00.873Z,61544.90
2019-05-18T09:38:56.801Z,61500.52
2019-05-18T09:43:52.753Z,61439.56
2019-05-18T09:48:48.677Z,61684.28
2019-05-18T09:53:51.578Z,61569.57
2019-05-18T09:58:42.432Z,61518.19
2019-05-18T10:03:38.358Z,61660.68
2019-05-18T10:08:34.391Z,61746.04
2019-05-18T10:13:30.326Z,61666.59
2019-05-18T10:18:26.250Z,62042.14
2019-05-18T10:23:22.177Z,62198.70
2019-05-18T10:28:18.112Z,62062.84
2019-05-18T10:33:14.042Z,61706.71
2019-05-18T10:38:09.974Z,61815.55
2019-05-18T10:43:05.888Z,61959.94
2019-05-18T10:48:01.964Z,61814.78
2019-05-18T10:53:02.408Z,61619.21
2019-05-18T10:58:02.084Z,62086.90
2019-05-18T11:03:03.305Z,62232.81
2019-05-18T11:08:00.146Z,61606.47
2019-05-18T11:12:57.162Z,61644.43
2019-05-18T11:17:53.185Z,61909.15
2019-05-18T11:22:49.114Z,62032.95
2019-05-18T11:27:45.038Z,62276.87
2019-05-18T11:32:41.023Z,61945.07
2019-05-18T11:37:36.940Z,61823.78
2019-05-18T11:42:33.064Z,61616.91
2019-05-18T11:47:29.093Z,61408.30
2019-05-18T11:52:25.021Z,61553.48
2019-05-18T11:57:21.111Z,61552.93
2019-05-18T12:02:17.210Z,61476.30
2019-05-18T12:07:13.202Z,61594.55
2019-05-18T12:12:09.252Z,61514.31
2019-05-18T12:17:05.155Z,61659.93
2019-05-18T12:22:01.072Z,61652.99
2019-05-18T12:26:57.191Z,62067.00
2019-05-18T12:31:53.194Z,62447.02
2019-05-18T12:36:49.302Z,61972.34
2019-05-18T12:41:45.283Z,62084.81
2019-05-18T12:46:41.283Z,61931.64
2019-05-18T12:51:37.415Z,61931.64
2019-05-18T12:56:33.330Z,62103.41
2019-05-18T13:01:29.339Z,61835.38
2019-05-18T13:06:25.266Z,61734.19
2019-05-18T13:11:21.222Z,61800.99
2019-05-18T13:16:17.148Z,62226.73
2019-05-18T13:21:13.088Z,62422.04
2019-05-18T13:26:09.128Z,62100.13
2019-05-18T13:31:05.057Z,61952.14
2019-05-18T13:36:01.018Z,61950.90
2019-05-18T13:40:56.949Z,61865.09
2019-05-18T13:45:56.541Z,62228.59
2019-05-18T13:50:52.526Z,62217.74
2019-05-18T13:55:48.559Z,62396.80
2019-05-18T14:00:44.555Z,62268.48
2019-05-18T14:05:45.272Z,62393.15
2019-05-18T14:10:45.675Z,62520.15
2019-05-18T14:15:42.585Z,62035.30
2019-05-18T14:20:39.812Z,61720.94
2019-05-18T14:25:35.862Z,61717.23
2019-05-18T14:30:32.268Z,61720.84
2019-05-18T14:35:33.402Z,61848.23
2019-05-18T14:40:31.689Z,62214.54
2019-05-18T14:45:28.016Z,62545.65
2019-05-18T14:50:24.724Z,62660.07
2019-05-18T14:55:32.763Z,62665.82
2019-05-18T15:00:19.012Z,62524.00
2019-05-18T15:05:20.338Z,62605.92
2019-05-18T15:10:19.162Z,62403.80
2019-05-18T15:15:15.417Z,62379.93
2019-05-18T15:20:15.765Z,62062.68
2019-05-18T15:25:13.036Z,62131.91
2019-05-18T15:30:09.253Z,62488.61
2019-05-18T15:35:06.005Z,62527.54
2019-05-18T15:40:03.141Z,62177.08
2019-05-18T15:45:00.336Z,62402.89
2019-05-18T15:50:01.179Z,62337.21
2019-05-18T15:54:59.524Z,62243.80
2019-05-18T15:59:56.116Z,62163.12
2019-05-18T16:04:52.662Z,62282.86
2019-05-18T16:09:48.594Z,61948.35
2019-05-18T16:14:44.516Z,61892.97
2019-05-18T16:19:50.734Z,61733.98
2019-05-18T16:24:46.665Z,61901.66
2019-05-18T16:29:46.209Z,62056.15
2019-05-18T16:34:43.087Z,62318.60
2019-05-18T16:39:39.689Z,62252.70
2019-05-18T16:44:35.935Z,62114.17
2019-05-18T16:49:34.397Z,62381.96
2019-05-18T16:54:31.333Z,62365.30
2019-05-18T16:59:28.268Z,62073.64
2019-05-18T17:04:29.343Z,62118.11
2019-05-18T17:09:29.439Z,62252.87
2019-05-18T17:14:26.672Z,62127.93
2019-05-18T17:19:26.189Z,61954.82
2019-05-18T17:24:23.496Z,61915.65
2019-05-18T17:29:21.581Z,62425.94
2019-05-18T17:34:17.714Z,62668.45
2019-05-18T17:39:13.732Z,62346.73
2019-05-18T17:44:13.267Z,62719.39
2019-05-18T17:49:25.848Z,62524.88
2019-05-18T17:54:10.539Z,62662.72
2019-05-18T17:59:08.433Z,62840.15
2019-05-18T18:04:07.107Z,62571.27
2019-05-18T18:09:06.746Z,62444.38
2019-05-18T18:14:03.289Z,62563.56
2019-05-18T18:18:59.218Z,62257.14
2019-05-18T18:23:55.446Z,62291.66
2019-05-18T18:28:51.471Z,62146.31
2019-05-18T18:33:47.619Z,62025.23
2019-05-18T18:38:47.312Z,62007.20
2019-05-18T18:43:43.330Z,61991.31
2019-05-18T18:48:39.257Z,61619.00
2019-05-18T18:53:35.180Z,61467.36
2019-05-18T18:58:31.101Z,61439.80
2019-05-18T19:03:27.673Z,61360.76
2019-05-18T19:08:23.569Z,61366.37
2019-05-18T19:13:19.527Z,61262.41
2019-05-18T19:18:16.320Z,61089.14
2019-05-18T19:23:12.332Z,61043.55
2019-05-18T19:28:10.173Z,60971.39
2019-05-18T19:33:06.257Z,60939.18
2019-05-18T19:38:02.298Z,60906.77
2019-05-18T19:42:58.221Z,60854.27
2019-05-18T19:47:54.198Z,60822.61
2019-05-18T19:52:50.121Z,60745.48
2019-05-18T19:57:46.048Z,60706.05
2019-05-18T20:02:41.987Z,60704.72
2019-05-18T20:07:38.015Z,60712.14
2019-05-18T20:12:33.979Z,60663.74
2019-05-18T20:17:29.921Z,60657.53
2019-05-18T20:22:25.843Z,60629.04
2019-05-18T20:27:21.773Z,60489.29
2019-05-18T20:32:17.713Z,60415.68
2019-05-18T20:37:13.608Z,60406.13
2019-05-18T20:42:09.593Z,60483.29
2019-05-18T20:47:05.529Z,60443.62
2019-05-18T20:52:01.456Z,60438.88
2019-05-18T20:56:57.381Z,60391.68
2019-05-18T21:01:53.358Z,60368.98
2019-05-18T21:06:49.392Z,60319.03
2019-05-18T21:11:45.332Z,60303.94
2019-05-18T21:16:41.269Z,60298.81
2019-05-18T21:21:37.194Z,60264.13
2019-05-18T21:26:33.125Z,60198.34
2019-05-18T21:31:29.049Z,60132.12
2019-05-18T21:36:25.561Z,60162.19
2019-05-18T21:41:23.642Z,60067.29
2019-05-18T21:46:19.593Z,60002.65
2019-05-18T21:51:15.713Z,60007.79
2019-05-18T21:56:11.665Z,59964.64
2019-05-18T22:01:07.988Z,59958.50
2019-05-18T22:06:03.918Z,60108.69
2019-05-18T22:11:00.065Z,60001.75
2019-05-18T22:15:56.090Z,59967.18
2019-05-18T22:20:52.030Z,59913.09
2019-05-18T22:25:48.000Z,59950.21
2019-05-18T22:30:44.035Z,60040.06
2019-05-18T22:35:39.977Z,59940.78
2019-05-18T22:40:35.912Z,59906.44
2019-05-18T22:45:31.876Z,59939.03
2019-05-18T22:50:27.800Z,59978.66
2019-05-18T22:55:23.737Z,60004.37
2019-05-18T23:00:20.002Z,60032.80
2019-05-18T23:05:16.014Z,60036.95
2019-05-18T23:10:12.642Z,60007.80
2019-05-18T23:15:08.662Z,59957.76
2019-05-18T23:20:04.795Z,59964.76
2019-05-18T23:25:00.813Z,59943.89
2019-05-18T23:30:09.326Z,59949.50
2019-05-18T23:35:06.051Z,59978.21
2019-05-18T23:40:03.619Z,59946.88
2019-05-18T23:44:59.553Z,59898.45
2019-05-18T23:49:55.479Z,59890.79
2019-05-18T23:54:51.507Z,59859.37
2019-05-18T23:59:47.475Z,59930.23
